Terminal Aerodrome Forecast
Issued by NWS Cleveland, OH

Home | Current Version | Previous Version | Text Only | Print | Product List | Glossary Off
Versions: 1 2 3 4 5 6 7 8 9 10 11 12 13 14 15 16 17 18 19 20

000
FTUS41 KCLE 250900 AAA
TAFCLE
TAF AMD
KCLE 250913Z 2509/2612 24015G25KT P6SM OVC020
      TEMPO 2509/2512 6SM -RASN OVC018
     FM252300 20010KT P6SM BKN025
     FM260400 20010KT P6SM SCT025=

USA.gov is the U.S. government's official web portal to all federal, state and local government web resources and services.